Time;durP1;ratioP1;P1;durP2;ratioP2;P2;SDS_P1;SDS_P2;PMS_P1;PMS_P2;Temp;Humidity;BMP_temperature;BMP_pressure;BME280_temperature;BME280_humidity;BME280_pressure;Samples;Min_cycle;Max_cycle;Signal;HPM_P1;HPM_P2
2022/04/13 00:01:58;;;;;;;21.75;12.45;;;;;;;;;;5049367;28;20109;-82
2022/04/13 00:04:24;;;;;;;19.52;11.73;;;;;;;;;;5040301;28;20025;-82
2022/04/13 00:06:50;;;;;;;18.80;11.27;;;;;;;;;;5039512;28;20399;-81
2022/04/13 00:09:16;;;;;;;21.42;11.75;;;;;;;;;;5048161;28;20397;-82
2022/04/13 00:11:45;;;;;;;18.67;11.52;;;;;;;;;;5039682;28;20124;-83
2022/04/13 00:14:11;;;;;;;20.40;12.85;;;;;;;;;;5038007;28;20017;-82
2022/04/13 00:16:37;;;;;;;18.13;11.57;;;;;;;;;;5054892;28;20036;-82
2022/04/13 00:19:03;;;;;;;21.25;12.75;;;;;;;;;;5059877;28;20356;-81
2022/04/13 00:21:29;;;;;;;18.88;11.80;;;;;;;;;;5048948;28;20437;-82
2022/04/13 00:23:56;;;;;;;20.42;12.38;;;;;;;;;;5053777;28;20399;-82
2022/04/13 00:26:23;;;;;;;20.05;12.05;;;;;;;;;;5039206;28;20025;-82
2022/04/13 00:28:49;;;;;;;21.38;12.55;;;;;;;;;;5038473;28;20035;-82
2022/04/13 00:31:15;;;;;;;20.23;12.15;;;;;;;;;;5039336;28;20132;-82
2022/04/13 00:33:41;;;;;;;22.33;13.57;;;;;;;;;;5039784;28;20547;-82
2022/04/13 00:36:07;;;;;;;20.80;13.70;;;;;;;;;;5039479;28;20018;-82
2022/04/13 00:38:33;;;;;;;20.83;13.52;;;;;;;;;;5044515;28;20124;-82
2022/04/13 00:40:59;;;;;;;20.70;12.30;;;;;;;;;;5057938;28;20049;-82
2022/04/13 00:43:25;;;;;;;19.52;12.63;;;;;;;;;;5039065;28;20033;-82
2022/04/13 00:45:52;;;;;;;21.73;13.75;;;;;;;;;;5039404;28;20437;-82
2022/04/13 00:48:29;;;;;;;21.05;13.18;;;;;;;;;;5038574;28;20018;-82
2022/04/13 00:50:55;;;;;;;21.50;13.45;;;;;;;;;;5039771;28;20022;-82
2022/04/13 00:53:22;;;;;;;23.13;12.98;;;;;;;;;;5038261;28;20025;-82
2022/04/13 00:55:49;;;;;;;20.73;12.88;;;;;;;;;;5041364;28;20491;-82
2022/04/13 00:58:15;;;;;;;20.13;12.50;;;;;;;;;;5039850;28;20021;-83
2022/04/13 01:00:48;;;;;;;23.10;13.20;;;;;;;;;;5052603;28;20029;-82
2022/04/13 01:03:24;;;;;;;20.05;12.65;;;;;;;;;;5046674;28;20029;-81
2022/04/13 01:05:51;;;;;;;22.58;13.82;;;;;;;;;;5045268;28;20032;-82
2022/04/13 01:08:17;;;;;;;21.27;12.98;;;;;;;;;;5038240;28;20056;-82
2022/04/13 01:10:44;;;;;;;19.45;12.40;;;;;;;;;;5051851;28;20487;-82
2022/04/13 01:13:11;;;;;;;26.15;13.07;;;;;;;;;;5057533;28;20013;-82
2022/04/13 01:15:37;;;;;;;21.13;13.82;;;;;;;;;;5049003;28;20060;-82
2022/04/13 01:18:03;;;;;;;20.45;13.10;;;;;;;;;;5038701;28;20113;-82
2022/04/13 01:20:29;;;;;;;19.70;12.55;;;;;;;;;;5047588;28;20579;-82
2022/04/13 01:22:56;;;;;;;19.40;12.93;;;;;;;;;;5039413;28;20021;-82
2022/04/13 01:25:22;;;;;;;21.10;13.25;;;;;;;;;;5043110;28;20056;-82
2022/04/13 01:27:48;;;;;;;20.98;13.00;;;;;;;;;;5038915;28;20412;-83
2022/04/13 01:30:14;;;;;;;19.20;12.77;;;;;;;;;;5038315;28;20056;-82
2022/04/13 01:32:40;;;;;;;19.65;12.52;;;;;;;;;;5038630;28;20082;-82
2022/04/13 01:35:07;;;;;;;21.67;13.27;;;;;;;;;;5042442;28;20435;-82
2022/04/13 01:37:34;;;;;;;21.85;12.73;;;;;;;;;;5043091;28;20043;-81
2022/04/13 01:40:00;;;;;;;20.50;12.60;;;;;;;;;;5057995;28;20021;-82
2022/04/13 01:42:26;;;;;;;20.63;12.07;;;;;;;;;;5050046;28;20407;-82
2022/04/13 01:44:52;;;;;;;18.88;11.63;;;;;;;;;;5040096;28;20029;-82
2022/04/13 01:47:18;;;;;;;20.83;12.45;;;;;;;;;;5041429;28;20025;-82
2022/04/13 01:49:44;;;;;;;19.80;12.20;;;;;;;;;;5059090;28;20021;-82
2022/04/13 01:52:11;;;;;;;18.35;12.05;;;;;;;;;;5038648;28;20029;-81
2022/04/13 01:54:37;;;;;;;19.85;12.48;;;;;;;;;;5049280;28;20378;-82
2022/04/13 01:57:04;;;;;;;21.42;12.45;;;;;;;;;;5040103;28;20434;-81
2022/04/13 01:59:30;;;;;;;20.92;12.88;;;;;;;;;;5037588;28;20026;-81
2022/04/13 02:01:56;;;;;;;19.67;11.48;;;;;;;;;;5037467;28;20306;-81
2022/04/13 02:04:23;;;;;;;21.85;12.63;;;;;;;;;;5046625;28;20059;-81
2022/04/13 02:06:50;;;;;;;22.23;13.02;;;;;;;;;;5051843;28;20053;-82
2022/04/13 02:09:16;;;;;;;18.10;11.57;;;;;;;;;;5038546;28;20089;-82
2022/04/13 02:11:42;;;;;;;18.50;12.35;;;;;;;;;;5051236;28;20029;-81
2022/04/13 02:14:09;;;;;;;20.40;12.50;;;;;;;;;;5051603;28;20071;-81
2022/04/13 02:16:35;;;;;;;18.15;11.27;;;;;;;;;;5037497;28;20022;-82
2022/04/13 02:19:01;;;;;;;22.85;13.05;;;;;;;;;;5037150;28;20391;-81
2022/04/13 02:21:28;;;;;;;20.52;11.70;;;;;;;;;;5044036;28;20022;-82
2022/04/13 02:23:54;;;;;;;20.65;12.30;;;;;;;;;;5041273;28;20025;-81
2022/04/13 02:26:22;;;;;;;19.50;11.95;;;;;;;;;;5053251;28;20035;-81
2022/04/13 02:28:48;;;;;;;17.50;11.20;;;;;;;;;;5059262;28;20017;-82
2022/04/13 02:31:15;;;;;;;17.73;11.55;;;;;;;;;;5056825;28;20132;-82
2022/04/13 02:33:41;;;;;;;18.40;11.05;;;;;;;;;;5040330;28;20037;-81
2022/04/13 02:36:07;;;;;;;19.73;12.55;;;;;;;;;;5054816;28;20025;-82
2022/04/13 02:38:33;;;;;;;19.92;11.98;;;;;;;;;;5058663;28;20031;-81
2022/04/13 02:40:59;;;;;;;21.17;11.43;;;;;;;;;;5056177;28;20048;-82
2022/04/13 02:43:28;;;;;;;22.02;11.90;;;;;;;;;;5041552;28;20033;-82
2022/04/13 02:45:54;;;;;;;18.00;11.48;;;;;;;;;;5038788;28;20116;-82
2022/04/13 02:48:20;;;;;;;20.75;11.10;;;;;;;;;;5037968;28;20549;-82
2022/04/13 02:50:46;;;;;;;19.30;11.63;;;;;;;;;;5039706;28;20024;-82
2022/04/13 02:53:13;;;;;;;18.42;11.48;;;;;;;;;;5045077;28;20040;-81
2022/04/13 02:55:39;;;;;;;20.40;11.70;;;;;;;;;;5049592;28;20155;-81
2022/04/13 02:58:05;;;;;;;16.98;10.90;;;;;;;;;;5037821;28;20021;-81
2022/04/13 03:00:31;;;;;;;18.23;12.40;;;;;;;;;;5037651;28;20029;-82
2022/04/13 03:02:57;;;;;;;25.33;11.63;;;;;;;;;;5038096;28;20395;-82
2022/04/13 03:05:23;;;;;;;18.73;10.68;;;;;;;;;;5048159;28;20029;-82
2022/04/13 03:07:49;;;;;;;20.42;10.50;;;;;;;;;;5036916;28;20076;-81
2022/04/13 03:10:15;;;;;;;17.90;10.57;;;;;;;;;;5056849;28;20033;-81
2022/04/13 03:12:44;;;;;;;17.17;11.05;;;;;;;;;;5057399;28;20025;-82
2022/04/13 03:15:11;;;;;;;19.48;10.55;;;;;;;;;;5042355;28;20033;-82
2022/04/13 03:17:38;;;;;;;19.88;11.20;;;;;;;;;;5036751;28;20028;-82
2022/04/13 03:20:04;;;;;;;18.08;10.73;;;;;;;;;;5039143;28;20036;-80
2022/04/13 03:22:30;;;;;;;18.67;10.35;;;;;;;;;;5056464;28;20099;-81
2022/04/13 03:24:56;;;;;;;16.77;11.27;;;;;;;;;;5046041;28;20026;-81
2022/04/13 03:27:22;;;;;;;17.27;10.10;;;;;;;;;;5039025;28;20060;-81
2022/04/13 03:29:48;;;;;;;19.90;11.30;;;;;;;;;;5037970;28;20044;-82
2022/04/13 03:32:14;;;;;;;18.40;10.82;;;;;;;;;;5038171;28;20054;-82
2022/04/13 03:34:40;;;;;;;17.02;10.27;;;;;;;;;;5043581;28;20037;-82
2022/04/13 03:37:06;;;;;;;14.52;9.82;;;;;;;;;;5038503;28;20195;-81
2022/04/13 03:39:32;;;;;;;18.83;10.15;;;;;;;;;;5056795;28;20029;-80
2022/04/13 03:41:58;;;;;;;18.05;11.13;;;;;;;;;;5056163;28;20036;-81
2022/04/13 03:44:24;;;;;;;16.80;10.63;;;;;;;;;;5052052;28;20427;-81
2022/04/13 03:46:50;;;;;;;18.23;11.80;;;;;;;;;;5022142;28;20018;-81
2022/04/13 03:49:16;;;;;;;17.35;10.02;;;;;;;;;;5050067;28;20041;-81
2022/04/13 03:51:42;;;;;;;19.52;11.07;;;;;;;;;;5058436;28;20040;-82
2022/04/13 03:54:08;;;;;;;15.45;9.73;;;;;;;;;;5058537;28;20078;-82
2022/04/13 03:56:36;;;;;;;16.27;10.77;;;;;;;;;;5059655;28;20031;-82
2022/04/13 03:59:02;;;;;;;15.27;9.63;;;;;;;;;;5045660;28;20053;-81
2022/04/13 04:01:28;;;;;;;15.50;9.38;;;;;;;;;;5047702;28;20025;-80
2022/04/13 04:03:55;;;;;;;16.10;10.23;;;;;;;;;;5049212;28;20463;-80
2022/04/13 04:06:21;;;;;;;17.02;9.82;;;;;;;;;;5019186;28;20036;-80
2022/04/13 04:08:47;;;;;;;13.30;9.82;;;;;;;;;;5019564;28;20593;-81
2022/04/13 04:11:14;;;;;;;15.85;9.27;;;;;;;;;;5031675;28;20488;-82
2022/04/13 04:13:40;;;;;;;14.93;10.23;;;;;;;;;;5036087;28;20502;-82
2022/04/13 04:16:06;;;;;;;17.23;9.68;;;;;;;;;;5021344;28;20436;-82
2022/04/13 04:18:32;;;;;;;21.73;11.65;;;;;;;;;;5021719;28;20081;-81
2022/04/13 04:20:58;;;;;;;17.00;9.70;;;;;;;;;;5041058;28;20057;-82
2022/04/13 04:23:24;;;;;;;15.98;9.82;;;;;;;;;;5049492;28;20026;-81
2022/04/13 04:25:50;;;;;;;14.95;10.38;;;;;;;;;;5020735;28;20407;-81
2022/04/13 04:28:16;;;;;;;17.50;10.07;;;;;;;;;;5021046;28;20040;-82
2022/04/13 04:30:42;;;;;;;16.38;9.35;;;;;;;;;;5026339;28;20021;-82
2022/04/13 04:33:09;;;;;;;15.75;9.82;;;;;;;;;;5030502;28;20022;-82
2022/04/13 04:35:35;;;;;;;18.33;10.63;;;;;;;;;;5040590;28;20021;-81
2022/04/13 04:38:02;;;;;;;16.05;9.80;;;;;;;;;;5039940;28;20029;-80
2022/04/13 04:40:28;;;;;;;18.92;10.68;;;;;;;;;;5039798;28;20029;-81
2022/04/13 04:42:54;;;;;;;17.70;10.45;;;;;;;;;;5042314;28;20091;-82
2022/04/13 04:45:20;;;;;;;17.08;10.10;;;;;;;;;;5052228;28;20052;-81
2022/04/13 04:47:47;;;;;;;17.95;10.75;;;;;;;;;;5043713;28;20369;-82
2022/04/13 04:50:14;;;;;;;15.80;10.25;;;;;;;;;;5043845;28;20152;-82
2022/04/13 04:52:42;;;;;;;15.57;10.23;;;;;;;;;;5042705;28;20018;-81
2022/04/13 04:55:09;;;;;;;17.35;10.00;;;;;;;;;;5053093;28;20048;-81
2022/04/13 04:57:35;;;;;;;19.02;10.02;;;;;;;;;;5038919;28;20404;-82
2022/04/13 05:00:01;;;;;;;18.05;11.38;;;;;;;;;;5032628;28;20026;-81
2022/04/13 05:02:27;;;;;;;17.58;10.75;;;;;;;;;;5037714;28;20029;-82
2022/04/13 05:04:53;;;;;;;16.23;10.32;;;;;;;;;;5042944;28;20060;-82
2022/04/13 05:07:19;;;;;;;16.42;10.32;;;;;;;;;;5034109;28;20046;-82
2022/04/13 05:09:45;;;;;;;15.75;9.95;;;;;;;;;;5042701;28;20033;-81
2022/04/13 05:12:11;;;;;;;13.63;9.18;;;;;;;;;;5035254;28;20400;-81
2022/04/13 05:14:37;;;;;;;15.25;10.07;;;;;;;;;;5048623;28;20029;-82
2022/04/13 05:17:04;;;;;;;15.10;10.00;;;;;;;;;;5056816;28;20033;-82
2022/04/13 05:19:29;;;;;;;15.93;10.02;;;;;;;;;;5058150;28;20032;-82
2022/04/13 05:21:56;;;;;;;15.20;9.73;;;;;;;;;;5034722;28;20104;-82
2022/04/13 05:24:22;;;;;;;16.13;10.02;;;;;;;;;;5054454;28;20112;-83
2022/04/13 05:26:48;;;;;;;15.88;9.60;;;;;;;;;;5064481;28;20029;-82
2022/04/13 05:29:14;;;;;;;15.55;9.95;;;;;;;;;;5039798;28;20036;-81
2022/04/13 05:31:39;;;;;;;16.73;9.80;;;;;;;;;;5047039;28;20031;-82
2022/04/13 05:34:06;;;;;;;14.75;9.80;;;;;;;;;;5049667;28;20021;-81
2022/04/13 05:36:32;;;;;;;16.20;9.15;;;;;;;;;;5048850;28;20029;-82
2022/04/13 05:38:58;;;;;;;17.63;11.05;;;;;;;;;;5053105;28;20022;-83
2022/04/13 05:41:24;;;;;;;12.13;9.13;;;;;;;;;;5027575;28;20034;-83
2022/04/13 05:43:50;;;;;;;14.50;9.45;;;;;;;;;;5044495;28;20107;-82
2022/04/13 05:46:16;;;;;;;13.40;8.98;;;;;;;;;;5047680;28;20030;-83
2022/04/13 05:48:42;;;;;;;17.52;9.13;;;;;;;;;;5044731;28;20033;-81
2022/04/13 05:51:09;;;;;;;16.25;9.68;;;;;;;;;;5046814;28;20048;-82
2022/04/13 05:53:35;;;;;;;16.50;8.70;;;;;;;;;;5041412;28;20021;-83
2022/04/13 05:56:01;;;;;;;15.07;9.20;;;;;;;;;;5033038;28;20041;-82
2022/04/13 05:58:27;;;;;;;18.25;10.38;;;;;;;;;;5023560;28;20022;-82
2022/04/13 06:00:54;;;;;;;16.50;9.68;;;;;;;;;;5072232;28;20475;-82
2022/04/13 06:03:20;;;;;;;12.48;9.60;;;;;;;;;;5027620;28;20079;-82
2022/04/13 06:05:47;;;;;;;14.98;9.52;;;;;;;;;;5035109;28;20065;-82
2022/04/13 06:08:13;;;;;;;13.35;8.52;;;;;;;;;;5020112;28;20073;-82
2022/04/13 06:10:39;;;;;;;13.57;8.90;;;;;;;;;;5020838;28;20116;-82
2022/04/13 06:13:05;;;;;;;13.55;8.77;;;;;;;;;;5043311;28;20021;-83
2022/04/13 06:15:32;;;;;;;12.88;8.98;;;;;;;;;;5029482;28;20021;-80
2022/04/13 06:18:01;;;;;;;14.73;8.95;;;;;;;;;;5038326;28;20040;-80
2022/04/13 06:20:27;;;;;;;11.52;7.65;;;;;;;;;;5020227;28;20033;-81
2022/04/13 06:22:53;;;;;;;13.93;9.02;;;;;;;;;;5040163;28;20028;-82
2022/04/13 06:25:19;;;;;;;14.35;9.18;;;;;;;;;;5059310;28;20475;-82
2022/04/13 06:27:46;;;;;;;13.93;7.97;;;;;;;;;;5058627;28;20029;-81
2022/04/13 06:30:12;;;;;;;12.32;8.43;;;;;;;;;;5042291;28;20061;-81
2022/04/13 06:32:39;;;;;;;12.70;8.35;;;;;;;;;;5027895;28;20063;-80
2022/04/13 06:35:07;;;;;;;15.95;9.13;;;;;;;;;;5056378;28;20036;-82
2022/04/13 06:37:33;;;;;;;14.05;9.10;;;;;;;;;;5043891;28;20022;-81
2022/04/13 06:39:59;;;;;;;12.25;8.20;;;;;;;;;;5040689;28;20022;-79
2022/04/13 06:42:25;;;;;;;15.20;10.13;;;;;;;;;;5037871;28;20060;-81
2022/04/13 06:44:53;;;;;;;13.23;8.70;;;;;;;;;;5036824;28;20037;-79
2022/04/13 06:47:19;;;;;;;11.77;7.95;;;;;;;;;;5030273;28;20464;-81
2022/04/13 06:49:49;;;;;;;12.48;8.15;;;;;;;;;;5035298;28;20086;-80
2022/04/13 06:52:15;;;;;;;13.18;8.20;;;;;;;;;;5042206;28;20029;-81
2022/04/13 06:54:41;;;;;;;13.00;7.63;;;;;;;;;;5046991;28;20091;-81
2022/04/13 06:57:07;;;;;;;15.52;8.63;;;;;;;;;;5026606;28;20467;-80
2022/04/13 06:59:35;;;;;;;15.77;8.27;;;;;;;;;;5020152;28;20507;-81
2022/04/13 07:02:01;;;;;;;13.68;7.50;;;;;;;;;;5022943;28;20092;-83
2022/04/13 07:04:27;;;;;;;13.10;8.30;;;;;;;;;;5029771;28;20025;-81
2022/04/13 07:06:53;;;;;;;13.18;7.60;;;;;;;;;;5030717;28;20041;-82
2022/04/13 07:09:19;;;;;;;13.25;8.25;;;;;;;;;;5038015;28;20034;-80
2022/04/13 07:11:45;;;;;;;14.40;7.88;;;;;;;;;;5038685;28;20037;-81
2022/04/13 07:14:11;;;;;;;12.02;7.90;;;;;;;;;;5035898;28;20574;-81
2022/04/13 07:16:37;;;;;;;14.50;7.78;;;;;;;;;;5030962;28;20404;-80
2022/04/13 07:19:03;;;;;;;13.43;7.25;;;;;;;;;;5028429;28;20030;-81
2022/04/13 07:21:29;;;;;;;14.77;8.75;;;;;;;;;;5046617;28;20026;-82
2022/04/13 07:23:57;;;;;;;12.95;6.97;;;;;;;;;;5045983;28;20376;-81
2022/04/13 07:26:23;;;;;;;13.93;7.15;;;;;;;;;;5045219;28;20040;-83
2022/04/13 07:28:49;;;;;;;13.23;7.90;;;;;;;;;;5024110;28;20030;-82
2022/04/13 07:31:15;;;;;;;12.50;7.57;;;;;;;;;;5025775;28;20045;-82
2022/04/13 07:33:41;;;;;;;9.73;6.60;;;;;;;;;;5035040;28;20096;-81
2022/04/13 07:36:07;;;;;;;13.13;7.68;;;;;;;;;;5046518;28;20311;-82
2022/04/13 07:38:33;;;;;;;12.32;7.72;;;;;;;;;;5040747;28;20033;-81
2022/04/13 07:44:15;;;;;;;12.70;6.80;;;;;;;;;;5038681;28;20032;-79
2022/04/13 07:46:42;;;;;;;10.25;6.90;;;;;;;;;;5048726;28;20483;-81
2022/04/13 07:49:09;;;;;;;11.75;7.00;;;;;;;;;;5042096;28;20104;-82
2022/04/13 07:51:35;;;;;;;13.85;7.55;;;;;;;;;;5032481;28;20017;-82
2022/04/13 07:54:01;;;;;;;11.68;7.20;;;;;;;;;;5024778;28;20085;-83
2022/04/13 07:56:28;;;;;;;13.60;7.32;;;;;;;;;;5046735;28;20022;-82
2022/04/13 07:58:54;;;;;;;13.18;7.47;;;;;;;;;;5042254;28;20022;-80
2022/04/13 08:01:20;;;;;;;10.25;6.85;;;;;;;;;;5041539;28;20384;-81
2022/04/13 08:03:46;;;;;;;13.70;6.97;;;;;;;;;;5044117;28;20041;-82
2022/04/13 08:06:12;;;;;;;13.38;7.25;;;;;;;;;;5041580;28;20491;-84
2022/04/13 08:08:39;;;;;;;13.13;7.72;;;;;;;;;;5039510;28;20055;-83
2022/04/13 08:11:06;;;;;;;14.32;7.28;;;;;;;;;;5042449;28;20029;-82
2022/04/13 08:13:32;;;;;;;11.90;7.13;;;;;;;;;;5044185;28;20025;-81
2022/04/13 08:15:58;;;;;;;12.68;7.18;;;;;;;;;;5050046;28;20021;-81
2022/04/13 08:18:24;;;;;;;11.95;7.00;;;;;;;;;;5044322;28;20059;-80
2022/04/13 08:20:50;;;;;;;11.27;7.03;;;;;;;;;;5046414;28;20018;-81
2022/04/13 08:23:16;;;;;;;12.80;6.55;;;;;;;;;;5045071;28;20155;-81
2022/04/13 08:25:43;;;;;;;10.82;6.72;;;;;;;;;;5047307;28;20026;-82
2022/04/13 08:28:09;;;;;;;10.98;6.85;;;;;;;;;;5046348;28;20032;-81
2022/04/13 08:30:35;;;;;;;11.15;6.40;;;;;;;;;;5044924;28;20024;-81
2022/04/13 08:33:01;;;;;;;10.82;6.32;;;;;;;;;;5045363;28;20025;-83
2022/04/13 08:35:27;;;;;;;11.27;6.40;;;;;;;;;;5051839;28;20522;-82
2022/04/13 08:37:53;;;;;;;10.77;6.82;;;;;;;;;;5052955;28;20029;-82
2022/04/13 08:40:21;;;;;;;10.65;6.13;;;;;;;;;;5043515;28;20022;-83
2022/04/13 08:42:58;;;;;;;10.68;6.15;;;;;;;;;;5042383;28;20036;-82
2022/04/13 08:45:25;;;;;;;10.85;7.20;;;;;;;;;;5043105;28;20025;-80
2022/04/13 08:47:59;;;;;;;11.80;6.95;;;;;;;;;;5054678;28;20029;-81
2022/04/13 08:50:29;;;;;;;13.68;7.80;;;;;;;;;;5066449;28;20032;-84
2022/04/13 08:53:05;;;;;;;16.75;7.28;;;;;;;;;;5065172;28;20029;-82
2022/04/13 08:55:32;;;;;;;14.85;7.40;;;;;;;;;;5065783;28;20024;-83
2022/04/13 08:58:07;;;;;;;10.18;6.90;;;;;;;;;;5063008;28;20032;-84
2022/04/13 09:00:35;;;;;;;11.43;7.30;;;;;;;;;;5066447;28;20061;-83
2022/04/13 09:03:19;;;;;;;13.25;6.93;;;;;;;;;;5065243;28;20104;-83
2022/04/13 09:05:47;;;;;;;14.95;6.85;;;;;;;;;;5058877;28;20026;-84
2022/04/13 09:08:28;;;;;;;12.23;6.80;;;;;;;;;;5056501;28;20419;-80
2022/04/13 09:10:54;;;;;;;11.63;6.43;;;;;;;;;;5065676;28;20063;-84
2022/04/13 09:13:21;;;;;;;12.68;7.25;;;;;;;;;;5064362;28;20079;-82
2022/04/13 09:15:48;;;;;;;13.15;7.10;;;;;;;;;;5063450;28;20032;-83
2022/04/13 09:18:14;;;;;;;11.25;6.55;;;;;;;;;;5050323;28;20049;-81
2022/04/13 09:20:40;;;;;;;12.02;6.32;;;;;;;;;;5060425;28;20429;-81
2022/04/13 09:23:06;;;;;;;11.48;6.07;;;;;;;;;;5065035;28;20032;-82
2022/04/13 09:25:33;;;;;;;11.85;6.40;;;;;;;;;;5064017;28;20032;-79
2022/04/13 09:28:00;;;;;;;12.40;7.03;;;;;;;;;;5053684;28;20032;-80
2022/04/13 09:30:27;;;;;;;12.80;5.90;;;;;;;;;;5043668;28;20022;-82
2022/04/13 09:32:54;;;;;;;13.82;6.68;;;;;;;;;;5042753;28;20092;-81
2022/04/13 09:35:20;;;;;;;12.40;6.50;;;;;;;;;;5060980;28;20028;-81
2022/04/13 09:37:47;;;;;;;12.07;6.18;;;;;;;;;;5063096;28;20057;-82
2022/04/13 09:40:35;;;;;;;13.75;7.32;;;;;;;;;;5064121;28;20088;-83
2022/04/13 09:43:08;;;;;;;12.10;6.55;;;;;;;;;;5052354;28;20026;-82
2022/04/13 09:45:44;;;;;;;12.27;7.10;;;;;;;;;;5063978;28;20115;-82
2022/04/13 09:48:11;;;;;;;9.80;5.68;;;;;;;;;;5052553;28;20049;-83
2022/04/13 09:50:38;;;;;;;10.98;6.35;;;;;;;;;;5041002;28;20029;-83
2022/04/13 09:53:05;;;;;;;11.18;5.43;;;;;;;;;;5042954;28;20025;-83
2022/04/13 09:55:42;;;;;;;9.68;6.30;;;;;;;;;;5060537;28;20039;-83
2022/04/13 09:58:15;;;;;;;9.70;5.55;;;;;;;;;;5062388;28;20101;-81
2022/04/13 10:00:40;;;;;;;;;;;;;;;;;;5063878;28;20013;-82
2022/04/13 10:03:09;;;;;;;10.63;5.57;;;;;;;;;;5065646;28;19908;-82
2022/04/13 10:05:35;;;;;;;11.20;6.20;;;;;;;;;;5063819;28;20511;-84
2022/04/13 10:08:05;;;;;;;12.60;6.05;;;;;;;;;;5054753;28;20049;-82
2022/04/13 10:10:31;;;;;;;13.32;6.03;;;;;;;;;;5041263;28;20537;-83
2022/04/13 10:12:57;;;;;;;12.23;5.88;;;;;;;;;;5041915;28;20048;-84
2022/04/13 10:15:23;;;;;;;10.93;5.53;;;;;;;;;;5040614;28;20518;-83
2022/04/13 10:17:50;;;;;;;12.45;5.78;;;;;;;;;;5047754;28;20025;-83
2022/04/13 10:20:16;;;;;;;9.45;5.35;;;;;;;;;;5061655;28;20083;-83
2022/04/13 10:23:00;;;;;;;11.07;6.05;;;;;;;;;;5063318;28;20170;-84
2022/04/13 10:25:27;;;;;;;11.02;6.00;;;;;;;;;;5063287;28;20024;-84
2022/04/13 10:27:54;;;;;;;10.38;5.53;;;;;;;;;;5062149;28;20471;-83
2022/04/13 10:30:27;;;;;;;11.63;5.90;;;;;;;;;;5049447;28;20091;-83
2022/04/13 10:33:00;;;;;;;11.10;6.03;;;;;;;;;;5042341;28;20030;-84
2022/04/13 10:35:27;;;;;;;10.63;5.53;;;;;;;;;;5042114;28;20032;-84
2022/04/13 10:37:55;;;;;;;9.65;5.75;;;;;;;;;;5042064;28;20448;-83
2022/04/13 10:40:22;;;;;;;13.52;5.68;;;;;;;;;;5043660;28;20017;-83
2022/04/13 10:42:51;;;;;;;10.27;5.65;;;;;;;;;;5041861;28;20041;-82
2022/04/13 10:45:17;;;;;;;10.73;5.55;;;;;;;;;;5043986;28;20021;-83
2022/04/13 10:47:52;;;;;;;10.35;6.10;;;;;;;;;;5043790;28;20052;-82
2022/04/13 10:50:30;;;;;;;10.20;5.88;;;;;;;;;;5049462;28;20487;-83
2022/04/13 10:53:05;;;;;;;9.20;5.65;;;;;;;;;;5043718;28;20017;-84
2022/04/13 10:55:33;;;;;;;9.13;6.00;;;;;;;;;;5043004;28;20013;-83
2022/04/13 10:58:08;;;;;;;9.50;5.70;;;;;;;;;;5042664;28;20083;-83
2022/04/13 11:00:36;;;;;;;13.52;5.85;;;;;;;;;;5061853;28;20029;-84
2022/04/13 11:03:03;;;;;;;9.40;5.28;;;;;;;;;;5065041;28;20025;-84
2022/04/13 11:05:30;;;;;;;9.80;5.28;;;;;;;;;;5065323;28;20029;-83
2022/04/13 11:08:02;;;;;;;9.02;5.85;;;;;;;;;;5066185;28;20044;-84
2022/04/13 11:10:31;;;;;;;11.30;5.72;;;;;;;;;;5057338;28;20120;-83
2022/04/13 11:12:58;;;;;;;10.40;5.97;;;;;;;;;;5052099;28;20040;-84
2022/04/13 11:15:45;;;;;;;9.77;5.35;;;;;;;;;;5047877;28;20018;-83
2022/04/13 11:18:12;;;;;;;9.80;5.45;;;;;;;;;;5047164;28;20021;-84
2022/04/13 11:20:59;;;;;;;11.63;6.28;;;;;;;;;;5064019;28;20025;-84
2022/04/13 11:23:45;;;;;;;10.18;5.50;;;;;;;;;;5024239;28;20037;-83
2022/04/13 11:26:11;;;;;;;9.05;5.28;;;;;;;;;;5024879;28;20050;-82
2022/04/13 11:28:37;;;;;;;10.43;5.63;;;;;;;;;;5038431;28;20028;-83
2022/04/13 11:31:07;;;;;;;12.38;6.15;;;;;;;;;;5060113;28;20026;-83
2022/04/13 11:33:41;;;;;;;10.75;5.72;;;;;;;;;;5045271;28;20064;-84
2022/04/13 11:36:07;;;;;;;8.90;5.22;;;;;;;;;;5044959;28;20025;-83
2022/04/13 11:38:36;;;;;;;8.50;5.07;;;;;;;;;;5046505;28;20049;-83
2022/04/13 11:41:08;;;;;;;10.55;5.05;;;;;;;;;;5058588;28;20488;-84
2022/04/13 11:43:35;;;;;;;8.48;4.93;;;;;;;;;;5046883;28;20041;-85
2022/04/13 11:46:01;;;;;;;10.55;5.10;;;;;;;;;;5046003;28;20021;-84
2022/04/13 11:48:34;;;;;;;11.15;5.80;;;;;;;;;;5044871;28;20029;-84
2022/04/13 11:51:18;;;;;;;8.75;5.50;;;;;;;;;;5045937;28;20044;-83
2022/04/13 11:53:54;;;;;;;9.23;5.22;;;;;;;;;;5046156;28;20017;-84
2022/04/13 11:56:37;;;;;;;9.85;6.20;;;;;;;;;;5046502;28;20018;-84
2022/04/13 11:59:03;;;;;;;9.25;5.82;;;;;;;;;;5047643;28;20055;-85
2022/04/13 12:01:30;;;;;;;9.05;5.72;;;;;;;;;;5046265;28;20029;-84
2022/04/13 12:03:58;;;;;;;11.77;5.38;;;;;;;;;;5045610;28;20518;-84
2022/04/13 12:06:26;;;;;;;9.80;5.70;;;;;;;;;;5044492;28;20041;-85
2022/04/13 12:08:56;;;;;;;11.18;5.00;;;;;;;;;;5045079;28;20045;-84
2022/04/13 12:11:23;;;;;;;10.07;4.90;;;;;;;;;;5041961;28;20029;-84
2022/04/13 12:13:54;;;;;;;10.00;5.35;;;;;;;;;;5043723;28;20026;-82
2022/04/13 12:16:41;;;;;;;9.10;5.38;;;;;;;;;;5049246;28;20022;-84
2022/04/13 12:19:08;;;;;;;13.05;5.38;;;;;;;;;;5045943;28;20105;-83
2022/04/13 12:21:36;;;;;;;11.23;5.55;;;;;;;;;;5045637;28;20029;-84
2022/04/13 12:24:06;;;;;;;9.20;5.28;;;;;;;;;;5045722;28;20029;-83
2022/04/13 12:26:33;;;;;;;8.15;4.95;;;;;;;;;;5057597;28;20076;-85
2022/04/13 12:29:01;;;;;;;10.50;6.22;;;;;;;;;;5044088;28;20032;-86
2022/04/13 12:31:28;;;;;;;10.13;5.63;;;;;;;;;;5044448;28;20029;-85
2022/04/13 12:34:00;;;;;;;8.68;4.80;;;;;;;;;;5042067;28;20072;-84
2022/04/13 12:36:26;;;;;;;8.82;5.07;;;;;;;;;;5045172;28;20017;-84
2022/04/13 12:38:55;;;;;;;8.77;5.53;;;;;;;;;;5042183;28;20030;-83
2022/04/13 12:41:21;;;;;;;8.48;4.63;;;;;;;;;;5042512;28;20021;-84
2022/04/13 12:43:52;;;;;;;11.45;5.13;;;;;;;;;;5045190;28;20025;-84
2022/04/13 12:46:19;;;;;;;8.85;5.13;;;;;;;;;;5046354;28;20044;-83
2022/04/13 12:48:46;;;;;;;9.55;5.53;;;;;;;;;;5061797;28;20060;-85
2022/04/13 12:51:13;;;;;;;7.93;4.88;;;;;;;;;;5063226;28;20084;-83
2022/04/13 12:53:46;;;;;;;8.05;4.88;;;;;;;;;;5061661;28;20504;-85
2022/04/13 12:56:17;;;;;;;9.68;5.00;;;;;;;;;;5024742;28;20026;-83
2022/04/13 12:58:44;;;;;;;13.70;5.80;;;;;;;;;;5023313;28;20022;-85
2022/04/13 13:01:10;;;;;;;9.07;5.57;;;;;;;;;;5040103;28;20029;-86
2022/04/13 13:03:40;;;;;;;8.90;5.32;;;;;;;;;;5042124;28;20028;-85
2022/04/13 13:06:15;;;;;;;8.20;4.53;;;;;;;;;;5043812;28;20037;-84
2022/04/13 13:09:01;;;;;;;10.50;4.95;;;;;;;;;;5042528;28;20163;-84
2022/04/13 13:11:31;;;;;;;9.18;4.97;;;;;;;;;;5024256;28;20063;-84
2022/04/13 13:14:23;;;;;;;7.88;4.88;;;;;;;;;;5024123;28;20030;-85
2022/04/13 13:16:49;;;;;;;11.15;5.00;;;;;;;;;;5031014;28;20083;-85
2022/04/13 13:19:17;;;;;;;7.50;5.07;;;;;;;;;;5039786;28;20032;-84
2022/04/13 13:22:02;;;;;;;8.70;5.07;;;;;;;;;;5044137;28;20025;-85
2022/04/13 13:24:29;;;;;;;7.90;5.18;;;;;;;;;;5049142;28;20029;-84
2022/04/13 13:26:56;;;;;;;10.85;5.15;;;;;;;;;;5062512;28;20422;-84
2022/04/13 13:29:22;;;;;;;7.38;4.90;;;;;;;;;;5067779;28;20009;-85
2022/04/13 13:31:48;;;;;;;8.40;4.47;;;;;;;;;;5077348;28;20062;-86
2022/04/13 13:34:21;;;;;;;8.25;4.53;;;;;;;;;;5075342;28;20017;-85
2022/04/13 13:37:05;;;;;;;10.15;5.05;;;;;;;;;;5038261;28;20041;-85
2022/04/13 13:39:32;;;;;;;8.98;5.07;;;;;;;;;;5037895;28;20045;-86
2022/04/13 13:42:04;;;;;;;8.88;5.22;;;;;;;;;;5051646;28;20036;-83
2022/04/13 13:44:30;;;;;;;9.18;5.18;;;;;;;;;;5051276;28;20047;-83
2022/04/13 13:46:57;;;;;;;9.00;5.20;;;;;;;;;;5036408;28;20029;-84
2022/04/13 13:49:23;;;;;;;10.52;5.40;;;;;;;;;;5036023;28;20089;-84
2022/04/13 13:51:49;;;;;;;9.50;5.47;;;;;;;;;;5037255;28;20034;-83
2022/04/13 13:54:16;;;;;;;8.23;4.95;;;;;;;;;;5047293;28;20028;-84
2022/04/13 13:56:41;;;;;;;8.75;5.18;;;;;;;;;;5058529;28;20021;-84
2022/04/13 13:59:08;;;;;;;8.07;4.85;;;;;;;;;;5054664;28;20026;-84
2022/04/13 14:01:34;;;;;;;8.13;4.68;;;;;;;;;;5036875;28;20035;-84
2022/04/13 14:04:00;;;;;;;9.63;5.32;;;;;;;;;;5044776;28;20084;-84
2022/04/13 14:06:26;;;;;;;9.43;4.55;;;;;;;;;;5048672;28;20033;-84
2022/04/13 14:08:53;;;;;;;8.43;5.20;;;;;;;;;;5057598;28;20069;-84
2022/04/13 14:11:19;;;;;;;8.82;4.32;;;;;;;;;;5057201;28;20049;-87
2022/04/13 14:13:46;;;;;;;6.15;4.40;;;;;;;;;;5076377;28;20056;-85
2022/04/13 14:16:12;;;;;;;9.48;5.28;;;;;;;;;;5070459;28;20052;-81
2022/04/13 14:18:39;;;;;;;8.15;4.80;;;;;;;;;;5055682;28;20032;-82
2022/04/13 14:21:05;;;;;;;8.27;4.68;;;;;;;;;;5037784;28;20037;-82
2022/04/13 14:23:31;;;;;;;7.65;4.50;;;;;;;;;;5054731;28;20487;-82
2022/04/13 14:25:57;;;;;;;8.30;4.95;;;;;;;;;;5057761;28;20029;-81
2022/04/13 14:28:23;;;;;;;8.57;4.25;;;;;;;;;;5045192;28;20030;-82
2022/04/13 14:30:49;;;;;;;6.97;4.20;;;;;;;;;;5038167;28;20025;-83
2022/04/13 14:33:16;;;;;;;10.02;4.45;;;;;;;;;;5036836;28;20021;-81
2022/04/13 14:35:42;;;;;;;8.73;4.45;;;;;;;;;;5033537;28;20017;-80